Nearby METAR Reports

 

NZWN - Wellington Intl, New Zealand
Distance from station: E 67km
Updated: 17/07/2018 10:00
Clear
Clear
 Wind from N
Wind: N 20 km/h
Temperature: 13°C
Dew Point: 8°C
Humidity: 72%
Barometer: 1008 hPa
Clouds: Clear
Visibility: 10 km
2018/07/16 22:00 NZWN 162200Z AUTO 01011KT 9999 NCD 13/08 Q1008 NOSIG
NZCH - Christchurch Int, New Zealand
Distance from station: SSW 269km
Updated: 17/07/2018 10:00
Clear
Clear
 Wind from SW
Wind: SW 7 km/h
Temperature: 12°C
Dew Point: 4°C
Humidity: 58%
Barometer: 1006 hPa
Clouds: Clear
Visibility: 10 km
2018/07/16 22:00 NZCH 162200Z AUTO 22004KT 9999 NCD 12/04 Q1006 NOSIG
 
NZAA - Auckland Intl Ar, New Zealand
Distance from station: N 480km
Updated: 17/07/2018 10:00
Few Clouds
Few Clouds
 Wind from W
Wind: W 9 km/h
Temperature: 14°C
Dew Point: 11°C
Humidity: 82%
Barometer: 1014 hPa
Clouds: Few Clouds
Visibility: 10 km
Cloud details: Few Clouds 701 m
2018/07/16 22:00 NZAA 162200Z AUTO 27005KT 9999 FEW023/// 14/11 Q1014 NOSIG